LFLY

Lyon-Bron Airport

Airport
ICAO code
LFLY
IATA Code
LYN
Summary
ICAO Region
EUR
ICAO Territory
Location

, Rhone-Alpes

Serving
Lyon
Elevation
659 ft
Coordinates
45° 43' 38" N , 4° 56' 39" E
Metar
Observation
LFLY 280400Z AUTO 18014KT CAVOK 12/06 Q1015 NOSIG
Station
Lyon / Bron
Date/Time
2022-11-28 04:00:00
Wind direction
180°
Wind speed
14 kts
Lowest cloud amount
clouds and visibility OK
Temperature
12°C
Dew point
6°C
Humidity
66%
QNH
1015 hPa
Weather condition
n/a

Runways

Designator Length Width Surface Rops
16/34 1820 45 ASP Yes/Yes

Airport map

Aerial View

SKYbrary Partners:

Safety knowledge contributed by: